Time;durP1;ratioP1;P1;durP2;ratioP2;P2;SDS_P1;SDS_P2;PMS_P1;PMS_P2;Temp;Humidity;BMP_temperature;BMP_pressure;BME280_temperature;BME280_humidity;BME280_pressure;Samples;Min_cycle;Max_cycle;Signal;HPM_P1;HPM_P2
2022/01/25 00:08:43;;;;;;;1.75;1.65;;;21.70;32.50;;;;;;5054048;28;20108;-54
2022/01/25 00:30:10;;;;;;;2.22;2.03;;;21.70;32.40;;;;;;5053459;28;20039;-50
2022/01/25 00:32:36;;;;;;;2.40;2.10;;;21.70;32.40;;;;;;5053643;28;20135;-53
2022/01/25 00:35:02;;;;;;;2.40;2.13;;;21.70;32.40;;;;;;5035195;28;20313;-52
2022/01/25 00:37:28;;;;;;;2.40;2.17;;;21.70;32.40;;;;;;5053570;28;20040;-51
2022/01/25 00:39:54;;;;;;;2.00;1.80;;;21.70;32.40;;;;;;5035296;28;20112;-50
2022/01/25 00:42:19;;;;;;;2.28;2.08;;;21.70;32.30;;;;;;5052990;28;20029;-50
2022/01/25 00:44:46;;;;;;;2.38;2.17;;;21.70;32.30;;;;;;5053339;28;20044;-53
2022/01/25 00:47:12;;;;;;;2.92;2.20;;;21.70;32.30;;;;;;5053148;28;20025;-53
2022/01/25 00:49:40;;;;;;;2.40;2.20;;;21.70;32.30;;;;;;5053329;28;20107;-50
2022/01/25 00:54:53;;;;;;;2.22;1.90;;;21.70;32.40;;;;;;5053165;28;20021;-55
2022/01/25 00:57:19;;;;;;;2.00;1.80;;;21.60;32.40;;;;;;5051965;28;20052;-48
2022/01/25 00:59:47;;;;;;;2.28;2.05;;;21.60;32.40;;;;;;5051164;28;20384;-56
2022/01/25 01:02:14;;;;;;;3.95;1.83;;;21.70;32.40;;;;;;5049007;28;20024;-52
2022/01/25 01:04:42;;;;;;;2.38;2.17;;;21.70;32.40;;;;;;5037269;28;20048;-53
2022/01/25 01:07:12;;;;;;;2.90;2.33;;;21.70;32.30;;;;;;5049163;28;20027;-49
2022/01/25 01:09:40;;;;;;;2.47;2.22;;;21.70;32.30;;;;;;5048528;28;20020;-55
2022/01/25 01:12:12;;;;;;;2.40;2.20;;;21.60;32.20;;;;;;5040513;28;20060;-54
2022/01/25 01:15:00;;;;;;;2.40;2.20;;;21.70;32.30;;;;;;5024869;28;20037;-56
2022/01/25 01:31:09;;;;;;;2.40;2.20;;;21.60;32.20;;;;;;5052911;28;20047;-53
2022/01/25 01:44:19;;;;;;;2.50;2.25;;;21.50;32.00;;;;;;5008356;28;20460;-55
2022/01/25 01:47:00;;;;;;;2.20;2.00;;;21.60;32.10;;;;;;5051962;28;20088;-55
2022/01/25 01:49:29;;;;;;;2.30;2.10;;;21.60;32.10;;;;;;5052277;28;20104;-53
2022/01/25 01:51:54;;;;;;;2.40;2.20;;;21.60;32.00;;;;;;5052621;28;20036;-55
2022/01/25 01:54:20;;;;;;;2.30;2.10;;;21.50;32.00;;;;;;5034752;28;20017;-52
2022/01/25 01:56:47;;;;;;;2.17;1.98;;;21.50;32.00;;;;;;5052770;28;20444;-56
2022/01/25 01:59:16;;;;;;;2.65;2.30;;;21.60;32.00;;;;;;5051505;28;20571;-56
2022/01/25 02:01:44;;;;;;;2.50;2.30;;;21.60;32.00;;;;;;5052440;28;20035;-56
2022/01/25 02:04:13;;;;;;;2.17;1.98;;;21.60;32.00;;;;;;5052471;28;20025;-57
2022/01/25 02:06:39;;;;;;;2.53;2.20;;;21.50;32.00;;;;;;5052210;28;20033;-53
2022/01/25 02:09:07;;;;;;;2.50;2.30;;;21.50;31.90;;;;;;5052324;28;20352;-54
2022/01/25 02:11:32;;;;;;;2.72;2.53;;;21.50;31.90;;;;;;5052001;28;20459;-56
2022/01/25 02:14:04;;;;;;;2.60;2.40;;;21.50;31.90;;;;;;5052325;28;20100;-50
2022/01/25 02:16:41;;;;;;;3.03;2.30;;;21.50;31.90;;;;;;5054545;28;20141;-50
2022/01/25 02:24:38;;;;;;;2.53;2.30;;;21.50;31.80;;;;;;5054797;28;20392;-48
2022/01/25 02:27:05;;;;;;;2.47;2.28;;;21.50;31.80;;;;;;5038347;28;20020;-52
2022/01/25 02:29:31;;;;;;;3.47;2.75;;;21.50;31.80;;;;;;5037800;28;20514;-53
2022/01/25 02:31:58;;;;;;;2.70;2.50;;;21.50;31.80;;;;;;5052928;28;20036;-53
2022/01/25 02:34:25;;;;;;;2.70;2.38;;;21.50;31.80;;;;;;5055522;28;20044;-53
2022/01/25 02:36:58;;;;;;;2.95;2.75;;;21.50;31.80;;;;;;5055679;28;20021;-53
2022/01/25 02:39:24;;;;;;;2.58;2.38;;;21.50;31.80;;;;;;5055278;28;20032;-52
2022/01/25 02:41:52;;;;;;;3.03;2.75;;;21.50;31.80;;;;;;5055718;28;20012;-52
2022/01/25 02:44:24;;;;;;;3.35;2.83;;;21.50;31.80;;;;;;5055240;28;20055;-53
2022/01/25 02:49:34;;;;;;;3.10;2.80;;;21.50;31.70;;;;;;5055427;28;20039;-52
2022/01/25 02:52:03;;;;;;;3.67;3.03;;;21.50;31.80;;;;;;5055306;28;20031;-54
2022/01/25 02:54:29;;;;;;;2.55;2.35;;;21.50;31.80;;;;;;5054851;28;20106;-48
2022/01/25 02:56:56;;;;;;;2.75;2.53;;;21.50;31.80;;;;;;5054805;28;21931;-55
2022/01/25 02:59:22;;;;;;;3.67;2.75;;;21.40;31.70;;;;;;5054957;28;20047;-49
2022/01/25 03:01:49;;;;;;;3.42;2.72;;;21.50;31.80;;;;;;5054986;28;20051;-52
2022/01/25 03:04:17;;;;;;;3.65;3.00;;;21.50;31.80;;;;;;5055511;28;20115;-53
2022/01/25 03:06:43;;;;;;;2.67;2.45;;;21.40;31.70;;;;;;5055388;28;20025;-55
2022/01/25 03:09:09;;;;;;;2.88;2.67;;;21.40;31.70;;;;;;5054758;28;20655;-54
2022/01/25 03:11:36;;;;;;;3.42;3.03;;;21.40;31.70;;;;;;5055158;28;20317;-51
2022/01/25 03:14:07;;;;;;;3.08;2.88;;;21.40;31.70;;;;;;5054536;28;20025;-56
2022/01/25 03:17:07;;;;;;;2.85;2.53;;;21.40;31.70;;;;;;5055304;28;20040;-51
2022/01/25 03:22:14;;;;;;;3.30;3.00;;;21.40;31.70;;;;;;5055284;28;20495;-56
2022/01/25 03:24:42;;;;;;;3.22;2.80;;;21.40;31.70;;;;;;5054432;28;20035;-55
2022/01/25 03:27:08;;;;;;;3.42;2.95;;;21.40;31.70;;;;;;5054425;28;20479;-55
2022/01/25 03:29:33;;;;;;;3.33;3.03;;;21.40;31.70;;;;;;5054676;28;20174;-52
2022/01/25 03:31:59;;;;;;;3.28;2.97;;;21.40;31.70;;;;;;5055108;28;20037;-55
2022/01/25 03:34:25;;;;;;;3.50;2.85;;;21.40;31.70;;;;;;5054269;28;20032;-55
2022/01/25 03:36:51;;;;;;;2.75;2.55;;;21.40;31.60;;;;;;5054460;28;20033;-55
2022/01/25 03:39:17;;;;;;;4.05;3.03;;;21.40;31.60;;;;;;5054290;28;20029;-50
2022/01/25 03:41:42;;;;;;;3.40;3.10;;;21.40;31.60;;;;;;5020321;28;20332;-55
2022/01/25 03:44:08;;;;;;;3.38;3.08;;;21.40;31.60;;;;;;5036631;28;20041;-56
2022/01/25 03:51:46;;;;;;;3.70;3.17;;;21.40;31.50;;;;;;5053994;28;20037;-56
2022/01/25 03:54:11;;;;;;;3.30;3.00;;;21.40;31.60;;;;;;5054535;28;20060;-52
2022/01/25 03:56:39;;;;;;;3.78;3.42;;;21.40;31.60;;;;;;5054418;28;20120;-53
2022/01/25 03:59:06;;;;;;;3.20;2.90;;;21.40;31.50;;;;;;5051525;28;20048;-55
2022/01/25 04:01:33;;;;;;;3.45;3.15;;;21.40;31.50;;;;;;5053145;28;20436;-57
2022/01/25 04:04:12;;;;;;;3.75;3.22;;;21.40;31.50;;;;;;5053550;28;20051;-53
2022/01/25 04:06:39;;;;;;;3.63;3.33;;;21.40;31.50;;;;;;5053936;28;20024;-56
2022/01/25 04:09:08;;;;;;;3.60;3.30;;;21.40;31.50;;;;;;5054539;28;20087;-52
2022/01/25 04:11:34;;;;;;;3.65;3.35;;;21.40;31.50;;;;;;5054040;28;20021;-54
2022/01/25 04:14:00;;;;;;;4.07;3.10;;;21.40;31.60;;;;;;5053249;28;20460;-55
2022/01/25 04:16:37;;;;;;;3.35;3.05;;;21.40;31.50;;;;;;5053849;28;20036;-55
2022/01/25 04:26:49;;;;;;;3.38;3.08;;;21.30;31.40;;;;;;5051047;28;20375;-53
2022/01/25 04:29:15;;;;;;;3.70;3.40;;;21.30;31.50;;;;;;5036086;28;20326;-56
2022/01/25 04:31:42;;;;;;;4.60;3.30;;;21.30;31.50;;;;;;5053627;28;20113;-52
2022/01/25 04:53:38;;;;;;;3.30;2.88;;;21.20;31.40;;;;;;5053002;28;20036;-47
2022/01/25 04:55:59;;;;;;;3.47;2.95;;;21.20;31.40;;;;;;5052327;28;20385;-54
2022/01/25 04:58:34;;;;;;;3.42;3.13;;;21.20;31.40;;;;;;5053021;28;20061;-51
2022/01/25 05:01:00;;;;;;;3.03;2.72;;;21.20;31.40;;;;;;5053153;28;20029;-53
2022/01/25 05:03:35;;;;;;;3.25;2.80;;;21.20;31.40;;;;;;5053217;28;20037;-55
2022/01/25 05:06:11;;;;;;;3.22;2.92;;;21.20;31.40;;;;;;5053030;28;20021;-50
2022/01/25 05:08:46;;;;;;;3.03;2.58;;;21.20;31.40;;;;;;5053394;28;20120;-50
2022/01/25 05:11:31;;;;;;;2.92;2.63;;;21.20;31.50;;;;;;5049467;28;20107;-51
2022/01/25 05:16:38;;;;;;;3.47;3.17;;;21.20;31.50;;;;;;5053164;28;20068;-54
2022/01/25 05:19:23;;;;;;;3.85;3.55;;;21.20;31.50;;;;;;5052716;28;20048;-53
2022/01/25 05:22:17;;;;;;;3.28;2.97;;;21.20;31.50;;;;;;5052275;28;20025;-50
2022/01/25 05:24:44;;;;;;;3.58;3.08;;;21.20;31.50;;;;;;5053040;28;20456;-55
2022/01/25 05:27:12;;;;;;;3.20;2.90;;;21.20;31.50;;;;;;5052902;28;20037;-51
2022/01/25 05:29:38;;;;;;;3.10;2.80;;;21.20;31.50;;;;;;5052912;28;20025;-49
2022/01/25 05:32:05;;;;;;;3.22;2.92;;;21.20;31.40;;;;;;5052637;28;20071;-54
2022/01/25 05:34:31;;;;;;;3.78;3.47;;;21.20;31.40;;;;;;5052440;28;20370;-50
2022/01/25 05:36:57;;;;;;;3.17;2.90;;;21.20;31.40;;;;;;5052533;28;20021;-51
2022/01/25 05:39:33;;;;;;;3.35;3.05;;;21.20;31.40;;;;;;5052828;28;20115;-53
2022/01/25 05:42:42;;;;;;;3.40;3.10;;;21.20;31.40;;;;;;5052586;28;20083;-47
2022/01/25 05:47:18;;;;;;;3.42;3.08;;;21.20;31.40;;;;;;5052761;28;20071;-53
2022/01/25 05:49:45;;;;;;;3.60;3.30;;;21.20;31.40;;;;;;5051741;28;20388;-53
2022/01/25 05:52:11;;;;;;;2.83;2.63;;;21.20;31.40;;;;;;5055633;28;20344;-56
2022/01/25 05:54:38;;;;;;;4.65;3.13;;;21.20;31.40;;;;;;5056615;28;20033;-51
2022/01/25 05:57:05;;;;;;;3.47;3.17;;;21.20;31.40;;;;;;5055983;28;20427;-52
2022/01/25 05:59:31;;;;;;;3.53;3.22;;;21.20;31.40;;;;;;5055968;28;20355;-56
2022/01/25 06:01:57;;;;;;;4.00;2.80;;;21.20;31.40;;;;;;5056497;28;20058;-51
2022/01/25 06:04:23;;;;;;;3.65;3.35;;;21.20;31.40;;;;;;5056402;28;20424;-53
2022/01/25 06:06:50;;;;;;;3.50;3.20;;;21.20;31.30;;;;;;5056682;28;20021;-56
2022/01/25 06:09:16;;;;;;;3.35;3.05;;;21.20;31.30;;;;;;5056734;28;20040;-55
2022/01/25 06:11:42;;;;;;;3.72;3.33;;;21.20;31.30;;;;;;5055390;28;20017;-51
2022/01/25 06:14:08;;;;;;;3.28;2.95;;;21.20;31.30;;;;;;5055016;28;20305;-55
2022/01/25 06:16:34;;;;;;;3.25;2.97;;;21.20;31.30;;;;;;5049071;28;20033;-49
2022/01/25 06:19:00;;;;;;;3.03;2.78;;;21.10;31.30;;;;;;5050018;28;20037;-50
2022/01/25 06:21:26;;;;;;;3.03;2.80;;;21.20;31.30;;;;;;5042915;28;20025;-50
2022/01/25 06:23:53;;;;;;;3.10;2.80;;;21.20;31.30;;;;;;5037239;28;20041;-53
2022/01/25 06:26:18;;;;;;;3.42;3.13;;;21.10;31.30;;;;;;5042040;28;20059;-54
2022/01/25 06:28:45;;;;;;;3.45;3.15;;;21.10;32.00;;;;;;5041147;28;20057;-52
2022/01/25 06:31:10;;;;;;;3.55;3.25;;;21.10;31.40;;;;;;5051372;28;20479;-48
2022/01/25 06:33:42;;;;;;;3.33;3.03;;;21.20;31.40;;;;;;5051417;28;20268;-52
2022/01/25 06:36:08;;;;;;;3.33;3.03;;;21.10;31.40;;;;;;5048159;28;20021;-52
2022/01/25 06:38:34;;;;;;;3.40;3.10;;;21.10;31.40;;;;;;5050436;28;20037;-54
2022/01/25 06:41:01;;;;;;;3.42;3.13;;;21.10;31.40;;;;;;5054942;28;20025;-49
2022/01/25 06:43:27;;;;;;;3.38;3.08;;;21.10;31.40;;;;;;5055244;28;20033;-50
2022/01/25 06:46:00;;;;;;;3.50;3.20;;;21.10;31.40;;;;;;5055365;28;20025;-55
2022/01/25 06:48:26;;;;;;;3.42;3.13;;;21.10;31.40;;;;;;5055820;28;20034;-54
2022/01/25 06:50:52;;;;;;;3.83;3.53;;;21.10;31.40;;;;;;5055394;28;20021;-50
2022/01/25 06:53:18;;;;;;;3.30;3.00;;;21.10;31.40;;;;;;5055564;28;20052;-53
2022/01/25 06:55:44;;;;;;;3.45;3.15;;;21.10;31.40;;;;;;5055476;28;20057;-54
2022/01/25 06:58:10;;;;;;;3.67;3.33;;;21.10;31.40;;;;;;5055611;28;21668;-56
2022/01/25 07:00:36;;;;;;;3.78;3.47;;;21.10;31.30;;;;;;5055548;28;20432;-55
2022/01/25 07:03:02;;;;;;;3.28;2.97;;;21.10;31.30;;;;;;5054242;28;20112;-52
2022/01/25 07:05:28;;;;;;;3.97;3.50;;;21.10;31.30;;;;;;5054756;28;20025;-55
2022/01/25 07:07:54;;;;;;;4.53;3.55;;;21.10;31.30;;;;;;5055743;28;20024;-51
2022/01/25 07:10:21;;;;;;;3.42;3.13;;;21.10;31.30;;;;;;5055042;28;20045;-53
2022/01/25 07:12:47;;;;;;;3.50;3.20;;;21.10;31.40;;;;;;5054818;28;20033;-55
2022/01/25 07:15:13;;;;;;;3.42;3.13;;;21.10;31.40;;;;;;5055048;28;20445;-50
2022/01/25 07:17:40;;;;;;;3.35;3.05;;;21.10;31.40;;;;;;5054666;28;20307;-56
2022/01/25 07:20:07;;;;;;;3.38;3.03;;;21.10;31.40;;;;;;5054525;28;20031;-51
2022/01/25 07:22:34;;;;;;;3.63;3.33;;;21.10;31.40;;;;;;5053589;28;20424;-53
2022/01/25 07:25:01;;;;;;;3.70;3.38;;;21.10;31.40;;;;;;5054756;28;20016;-52
2022/01/25 07:27:27;;;;;;;3.90;3.42;;;21.10;31.40;;;;;;5054722;28;20039;-56
2022/01/25 07:29:52;;;;;;;3.47;3.17;;;21.10;31.40;;;;;;5054622;28;20020;-53
2022/01/25 07:32:18;;;;;;;3.30;3.00;;;21.10;31.40;;;;;;5054769;28;20036;-54
2022/01/25 07:34:44;;;;;;;3.55;3.25;;;21.00;31.30;;;;;;5053705;28;20055;-49
2022/01/25 07:37:10;;;;;;;3.58;3.28;;;21.00;31.30;;;;;;5054613;28;20075;-54
2022/01/25 07:39:36;;;;;;;4.18;3.78;;;21.00;31.40;;;;;;5054202;28;20025;-55
2022/01/25 07:42:02;;;;;;;3.13;2.83;;;21.00;31.40;;;;;;5050775;28;20021;-55
2022/01/25 07:44:39;;;;;;;3.40;3.10;;;21.00;31.50;;;;;;5033334;28;20444;-56
2022/01/25 07:47:06;;;;;;;3.10;2.80;;;21.00;31.70;;;;;;5053497;28;20395;-56
2022/01/25 07:49:32;;;;;;;3.42;2.97;;;21.10;32.00;;;;;;5054468;28;20060;-54
2022/01/25 07:51:58;;;;;;;3.75;3.15;;;21.10;32.10;;;;;;5054673;28;20043;-52
2022/01/25 07:54:25;;;;;;;2.80;2.50;;;21.20;32.20;;;;;;5053875;28;20025;-54
2022/01/25 07:56:53;;;;;;;2.55;2.35;;;21.30;32.30;;;;;;5053174;28;20048;-53
2022/01/25 07:59:19;;;;;;;3.10;2.80;;;21.40;32.20;;;;;;5053247;28;20544;-56
2022/01/25 08:01:45;;;;;;;3.30;3.00;;;21.50;32.10;;;;;;5054591;28;20052;-52
2022/01/25 08:04:14;;;;;;;2.83;2.60;;;21.60;32.00;;;;;;5053940;28;20037;-56
2022/01/25 08:06:40;;;;;;;2.97;2.70;;;21.70;31.90;;;;;;5053538;28;20053;-59
2022/01/25 08:09:07;;;;;;;5.20;2.90;;;21.80;31.80;;;;;;5053858;28;20395;-53
2022/01/25 08:11:34;;;;;;;2.78;2.58;;;21.90;31.70;;;;;;5054165;28;20043;-54
2022/01/25 08:14:12;;;;;;;3.20;2.90;;;21.90;31.60;;;;;;5053791;28;20028;-56
2022/01/25 08:16:44;;;;;;;2.63;2.42;;;22.00;31.50;;;;;;5035148;28;20391;-50
2022/01/25 08:19:10;;;;;;;2.85;2.65;;;22.10;31.40;;;;;;5055079;28;20352;-55
2022/01/25 08:21:36;;;;;;;3.75;2.83;;;22.20;31.30;;;;;;5055538;28;20317;-56
2022/01/25 08:24:04;;;;;;;2.72;2.53;;;22.30;31.20;;;;;;5054487;28;20367;-55
2022/01/25 08:26:30;;;;;;;2.92;2.70;;;22.40;31.20;;;;;;5053425;28;20037;-55
2022/01/25 08:28:56;;;;;;;2.72;2.53;;;22.40;31.00;;;;;;5054097;28;20037;-56
2022/01/25 08:31:21;;;;;;;3.33;3.03;;;22.50;31.00;;;;;;5053366;28;20128;-54
2022/01/25 08:33:47;;;;;;;3.08;2.78;;;22.60;31.00;;;;;;5050948;28;20439;-53
2022/01/25 08:36:13;;;;;;;3.60;3.10;;;22.60;30.90;;;;;;5052155;28;20049;-56
2022/01/25 08:38:39;;;;;;;3.10;2.83;;;22.70;30.80;;;;;;5047827;28;20045;-53
2022/01/25 08:41:06;;;;;;;3.30;3.00;;;22.70;30.70;;;;;;5050539;28;20035;-52
2022/01/25 08:43:35;;;;;;;3.58;3.00;;;22.80;30.60;;;;;;5053322;28;20397;-55
2022/01/25 08:46:03;;;;;;;3.10;2.80;;;22.90;30.60;;;;;;5053195;28;20017;-53
2022/01/25 08:48:28;;;;;;;3.03;2.60;;;22.90;30.50;;;;;;5053199;28;20433;-54
2022/01/25 08:50:54;;;;;;;2.90;2.50;;;23.00;30.40;;;;;;5053043;28;20025;-56
2022/01/25 08:53:20;;;;;;;3.33;3.03;;;23.10;30.40;;;;;;5051898;28;20021;-57
2022/01/25 08:55:46;;;;;;;3.72;2.90;;;23.10;30.20;;;;;;5052759;28;20099;-51
2022/01/25 08:58:12;;;;;;;3.30;2.90;;;23.20;30.20;;;;;;5052951;28;20032;-53
2022/01/25 09:00:38;;;;;;;3.00;2.67;;;23.20;30.00;;;;;;5052668;28;20052;-53
2022/01/25 09:03:04;;;;;;;3.20;2.90;;;23.30;30.00;;;;;;5051324;28;20049;-52
2022/01/25 09:05:31;;;;;;;3.20;2.90;;;23.30;30.00;;;;;;5052852;28;20024;-50
2022/01/25 09:07:58;;;;;;;4.88;2.67;;;23.30;29.90;;;;;;5053506;28;20033;-53
2022/01/25 09:10:25;;;;;;;3.13;2.83;;;23.40;29.90;;;;;;5054559;28;20035;-52
2022/01/25 09:12:51;;;;;;;4.38;2.97;;;23.40;29.90;;;;;;5054618;28;20029;-50
2022/01/25 09:15:17;;;;;;;3.60;3.08;;;23.40;29.90;;;;;;5054285;28;20032;-55
2022/01/25 09:17:43;;;;;;;3.00;2.67;;;23.50;29.90;;;;;;5054422;28;20428;-55
2022/01/25 09:20:10;;;;;;;3.00;2.70;;;23.50;29.80;;;;;;5054394;28;20024;-54
2022/01/25 09:22:36;;;;;;;3.10;2.80;;;23.50;29.80;;;;;;5053981;28;20340;-52
2022/01/25 09:25:02;;;;;;;3.10;2.58;;;23.60;29.70;;;;;;5054991;28;20051;-52
2022/01/25 09:27:28;;;;;;;3.97;2.65;;;23.60;29.60;;;;;;5059795;28;20108;-49
2022/01/25 09:29:54;;;;;;;3.70;2.92;;;23.60;29.60;;;;;;5060066;28;20116;-52
2022/01/25 09:32:20;;;;;;;3.60;3.30;;;23.70;29.60;;;;;;5060072;28;20104;-49
2022/01/25 09:34:47;;;;;;;3.20;2.90;;;23.70;29.50;;;;;;5043543;28;20083;-52
2022/01/25 09:37:13;;;;;;;3.20;2.75;;;23.70;29.50;;;;;;5060729;28;20017;-51
2022/01/25 09:39:39;;;;;;;3.08;2.78;;;23.70;29.50;;;;;;5061165;28;20459;-53
2022/01/25 09:42:08;;;;;;;4.20;2.70;;;23.70;29.40;;;;;;5060937;28;20032;-53
2022/01/25 09:44:36;;;;;;;3.05;2.75;;;23.70;29.40;;;;;;5060570;28;20359;-50
2022/01/25 09:47:03;;;;;;;2.63;2.42;;;23.70;29.40;;;;;;5061243;28;20032;-50
2022/01/25 09:49:30;;;;;;;3.10;2.80;;;23.80;29.40;;;;;;5060684;28;20089;-53
2022/01/25 09:51:56;;;;;;;2.65;2.45;;;23.80;29.40;;;;;;5061124;28;20032;-55
2022/01/25 09:54:21;;;;;;;2.88;2.58;;;23.80;29.40;;;;;;5060602;28;20440;-52
2022/01/25 09:56:47;;;;;;;2.92;2.70;;;23.80;29.40;;;;;;5060843;28;20162;-53
2022/01/25 09:59:13;;;;;;;3.30;2.55;;;23.80;29.40;;;;;;5060503;28;20040;-55
2022/01/25 10:01:39;;;;;;;3.25;2.42;;;23.80;29.40;;;;;;5060331;28;20033;-53
2022/01/25 10:04:34;;;;;;;2.58;2.38;;;23.80;29.40;;;;;;5060885;28;20114;-54
2022/01/25 10:07:01;;;;;;;2.60;2.20;;;23.80;29.30;;;;;;5060720;28;20028;-54
2022/01/25 10:09:29;;;;;;;3.30;3.00;;;23.70;29.30;;;;;;5060430;28;20167;-49
2022/01/25 10:11:55;;;;;;;4.43;2.85;;;23.80;29.40;;;;;;5060652;28;20467;-52
2022/01/25 10:14:25;;;;;;;3.20;2.80;;;23.70;29.30;;;;;;5060252;28;20025;-53
2022/01/25 10:16:53;;;;;;;3.25;2.67;;;23.70;29.30;;;;;;5059852;28;20039;-52
2022/01/25 10:19:24;;;;;;;4.45;2.65;;;23.70;29.30;;;;;;5059396;28;20033;-55
2022/01/25 10:21:51;;;;;;;3.47;3.15;;;23.70;29.40;;;;;;5057241;28;20056;-48
2022/01/25 10:24:28;;;;;;;3.60;3.30;;;23.60;29.40;;;;;;5060984;28;20136;-51
2022/01/25 10:27:02;;;;;;;5.88;2.97;;;23.50;29.50;;;;;;5059062;28;20017;-52
2022/01/25 10:29:34;;;;;;;3.45;3.05;;;23.50;29.50;;;;;;5042618;28;20113;-52
2022/01/25 10:32:09;;;;;;;2.83;2.60;;;23.50;29.60;;;;;;5058253;28;20451;-49
2022/01/25 10:34:46;;;;;;;3.08;2.83;;;23.50;29.60;;;;;;5059764;28;20032;-55
2022/01/25 10:37:17;;;;;;;3.10;2.75;;;23.50;29.60;;;;;;5053700;28;20029;-50
2022/01/25 10:39:48;;;;;;;4.20;3.33;;;23.40;29.60;;;;;;5052605;28;20028;-50
2022/01/25 10:42:18;;;;;;;3.13;2.63;;;23.40;29.60;;;;;;5053313;28;20045;-53
2022/01/25 10:44:56;;;;;;;3.10;2.78;;;23.40;29.60;;;;;;5057375;28;20111;-52
2022/01/25 10:47:42;;;;;;;3.38;3.03;;;23.40;29.60;;;;;;5057083;28;20419;-51
2022/01/25 10:50:17;;;;;;;3.60;2.88;;;23.40;29.60;;;;;;5027726;28;20048;-53
2022/01/25 10:52:44;;;;;;;3.35;3.05;;;23.40;29.60;;;;;;5056499;28;20038;-49
2022/01/25 10:55:11;;;;;;;3.20;2.75;;;23.30;29.60;;;;;;5055828;28;20036;-52
2022/01/25 10:57:36;;;;;;;3.25;2.95;;;23.40;29.60;;;;;;5056939;28;20081;-52
2022/01/25 11:00:11;;;;;;;3.22;2.92;;;23.40;29.60;;;;;;5054763;28;20057;-53
2022/01/25 11:02:50;;;;;;;3.22;2.88;;;23.40;29.60;;;;;;5056685;28;20039;-52
2022/01/25 11:05:18;;;;;;;3.22;2.92;;;23.40;29.50;;;;;;5053185;28;20375;-51
2022/01/25 11:07:45;;;;;;;3.08;2.78;;;23.40;29.60;;;;;;5056012;28;20053;-53
2022/01/25 11:10:18;;;;;;;3.05;2.75;;;23.40;29.60;;;;;;5056595;28;20040;-56
2022/01/25 11:12:59;;;;;;;3.40;3.10;;;23.40;29.60;;;;;;5055676;28;20052;-53
2022/01/25 11:15:25;;;;;;;4.57;3.22;;;23.30;29.50;;;;;;5052466;28;20119;-52
2022/01/25 11:17:51;;;;;;;2.80;2.60;;;23.30;29.60;;;;;;5037687;28;20047;-55
2022/01/25 11:20:18;;;;;;;2.97;2.67;;;23.40;29.80;;;;;;5032343;28;20135;-54
2022/01/25 11:22:44;;;;;;;2.83;2.63;;;23.40;29.80;;;;;;5049109;28;20112;-53
2022/01/25 11:25:14;;;;;;;3.42;3.08;;;23.40;29.90;;;;;;5056346;28;20071;-51
2022/01/25 11:27:43;;;;;;;3.42;3.10;;;23.40;29.90;;;;;;5055764;28;20324;-49
2022/01/25 11:30:16;;;;;;;3.38;2.80;;;23.50;30.00;;;;;;5054828;28;20025;-51
2022/01/25 11:32:49;;;;;;;3.15;2.80;;;23.60;30.00;;;;;;5049899;28;20033;-47
2022/01/25 11:35:23;;;;;;;4.20;2.50;;;23.50;30.00;;;;;;5049874;28;20104;-49
2022/01/25 11:37:50;;;;;;;;;;;23.60;30.10;;;;;;5054324;28;20032;-50
2022/01/25 11:40:34;;;;;;;5.40;2.67;;;23.60;30.20;;;;;;5054677;28;20694;-52
2022/01/25 11:43:06;;;;;;;2.87;2.53;;;23.70;30.40;;;;;;5055057;28;20090;-49
2022/01/25 11:45:38;;;;;;;7.72;2.50;;;23.70;30.40;;;;;;5050963;28;20056;-47
2022/01/25 11:48:04;;;;;;;4.78;2.40;;;23.70;30.50;;;;;;5054395;28;20340;-45
2022/01/25 11:50:34;;;;;;;4.88;2.38;;;23.70;30.60;;;;;;5054145;28;20025;-49
2022/01/25 11:53:10;;;;;;;5.40;2.72;;;23.80;30.60;;;;;;5053940;28;20094;-57
2022/01/25 11:55:38;;;;;;;4.88;2.60;;;23.90;30.70;;;;;;5054887;28;20021;-51
2022/01/25 11:58:16;;;;;;;6.35;2.97;;;23.90;30.80;;;;;;5054506;28;20083;-54
2022/01/25 12:00:48;;;;;;;6.15;3.25;;;24.00;30.80;;;;;;5050925;28;20199;-52
2022/01/25 12:03:35;;;;;;;6.97;3.25;;;24.00;30.80;;;;;;5051139;28;20028;-48
2022/01/25 12:06:27;;;;;;;7.82;3.05;;;24.00;30.80;;;;;;5051873;28;20035;-51
2022/01/25 12:12:07;;;;;;;4.95;2.70;;;24.10;31.00;;;;;;5055501;28;20355;-52
2022/01/25 12:14:43;;;;;;;4.22;2.78;;;24.10;31.00;;;;;;5054395;28;20104;-59
2022/01/25 12:17:14;;;;;;;4.10;2.50;;;24.10;31.00;;;;;;5054654;28;20029;-57
2022/01/25 12:19:52;;;;;;;3.00;2.70;;;24.10;30.90;;;;;;5054188;28;20033;-49
2022/01/25 12:22:37;;;;;;;6.00;3.05;;;24.10;30.90;;;;;;5055438;28;20032;-51
2022/01/25 12:25:27;;;;;;;6.20;3.35;;;24.20;30.90;;;;;;5053843;28;20033;-48
2022/01/25 12:27:57;;;;;;;6.65;3.72;;;24.20;30.90;;;;;;5055200;28;20025;-52
2022/01/25 12:30:26;;;;;;;4.65;4.20;;;24.20;30.90;;;;;;5035844;28;20025;-57
2022/01/25 12:33:00;;;;;;;4.95;4.50;;;24.20;30.90;;;;;;5054845;28;20037;-54
2022/01/25 12:35:45;;;;;;;4.38;3.97;;;24.20;30.80;;;;;;5054450;28;20376;-52
2022/01/25 12:38:21;;;;;;;8.13;4.55;;;24.20;30.80;;;;;;5054944;28;20025;-55
2022/01/25 12:40:58;;;;;;;5.80;4.97;;;24.20;30.80;;;;;;5054207;28;20436;-51
2022/01/25 12:43:39;;;;;;;6.22;5.47;;;24.20;30.90;;;;;;5043369;28;20352;-51
2022/01/25 12:46:14;;;;;;;6.63;5.75;;;24.20;30.90;;;;;;5053591;28;20100;-50
2022/01/25 12:48:50;;;;;;;5.93;5.30;;;24.20;31.00;;;;;;5054294;28;20032;-50
2022/01/25 12:51:22;;;;;;;6.47;5.88;;;24.30;31.10;;;;;;5054736;28;20025;-52
2022/01/25 12:53:50;;;;;;;6.30;5.80;;;24.30;31.00;;;;;;5053084;28;20029;-51
2022/01/25 12:56:28;;;;;;;6.97;6.28;;;24.30;31.00;;;;;;5054732;28;20048;-52
2022/01/25 12:59:00;;;;;;;6.93;6.05;;;24.30;30.90;;;;;;5052851;28;20044;-54
2022/01/25 13:01:27;;;;;;;9.57;6.60;;;24.30;30.80;;;;;;5053466;28;20440;-59
2022/01/25 13:04:01;;;;;;;7.40;6.70;;;24.30;30.80;;;;;;5054165;28;20083;-53
2022/01/25 13:06:50;;;;;;;7.97;6.60;;;24.30;30.90;;;;;;5053324;28;20028;-55
2022/01/25 13:09:24;;;;;;;7.50;6.78;;;24.20;31.00;;;;;;5054028;28;20391;-68
2022/01/25 13:17:14;;;;;;;12.85;8.55;;;24.20;31.50;;;;;;5044604;28;20075;-56
2022/01/25 13:20:01;;;;;;;9.15;8.30;;;24.20;31.70;;;;;;5054406;28;20029;-55
2022/01/25 13:22:36;;;;;;;9.05;8.25;;;24.30;31.80;;;;;;5053606;28;20440;-54
2022/01/25 13:25:30;;;;;;;9.70;8.80;;;24.30;32.10;;;;;;5051739;28;20115;-55
2022/01/25 13:28:00;;;;;;;9.35;8.45;;;24.30;32.20;;;;;;5052541;28;20035;-57
2022/01/25 13:30:48;;;;;;;11.20;10.02;;;24.30;32.20;;;;;;5047288;28;20025;-52
2022/01/25 13:33:17;;;;;;;10.38;9.35;;;24.30;32.20;;;;;;5051803;28;20032;-50
2022/01/25 13:35:48;;;;;;;11.05;9.88;;;24.30;32.20;;;;;;5051915;28;20033;-57
2022/01/25 13:38:20;;;;;;;10.80;9.68;;;24.30;32.10;;;;;;5050160;28;20440;-48
2022/01/25 13:40:57;;;;;;;9.80;8.90;;;24.30;32.00;;;;;;5052293;28;20053;-52
2022/01/25 13:45:59;;;;;;;8.70;7.80;;;24.40;31.80;;;;;;5052466;28;20440;-52
2022/01/25 13:48:27;;;;;;;9.80;8.80;;;24.40;31.70;;;;;;5052498;28;20029;-51
2022/01/25 13:51:07;;;;;;;8.73;7.93;;;24.40;31.60;;;;;;5051473;28;20021;-56
2022/01/25 13:53:35;;;;;;;8.55;7.75;;;24.50;31.50;;;;;;5050015;28;20020;-57
2022/01/25 13:56:02;;;;;;;9.23;8.40;;;24.40;31.40;;;;;;5052046;28;20432;-54
2022/01/25 13:58:38;;;;;;;8.10;7.35;;;24.40;31.30;;;;;;5052330;28;20068;-59
2022/01/25 14:01:06;;;;;;;8.95;8.05;;;24.50;31.30;;;;;;5052363;28;20049;-58
2022/01/25 14:03:39;;;;;;;9.25;7.68;;;24.50;31.30;;;;;;5052599;28;20467;-55
2022/01/25 14:06:32;;;;;;;8.85;8.05;;;24.50;31.50;;;;;;5051819;28;20500;-57
2022/01/25 14:09:29;;;;;;;8.27;7.32;;;24.60;31.60;;;;;;5051971;28;20028;-58
2022/01/25 14:23:21;;;;;;;8.32;7.53;;;24.50;32.00;;;;;;5053974;28;20021;-54
2022/01/25 14:25:48;;;;;;;7.88;7.03;;;24.40;32.00;;;;;;5054024;28;20211;-50
2022/01/25 14:28:19;;;;;;;8.68;7.88;;;24.50;32.20;;;;;;5055331;28;20381;-57
2022/01/25 14:30:50;;;;;;;7.80;7.10;;;24.50;32.20;;;;;;5055194;28;20320;-56
2022/01/25 14:33:20;;;;;;;8.35;7.55;;;24.50;32.20;;;;;;5054215;28;20462;-62
2022/01/25 14:36:05;;;;;;;8.25;7.50;;;24.50;32.20;;;;;;5052311;28;20056;-55
2022/01/25 14:38:39;;;;;;;8.10;7.30;;;24.50;32.20;;;;;;5055902;28;20064;-56
2022/01/25 14:41:18;;;;;;;8.27;7.28;;;24.50;32.20;;;;;;5055333;28;20036;-53
2022/01/25 14:43:53;;;;;;;8.95;8.05;;;24.50;32.30;;;;;;5017448;28;20425;-53
2022/01/25 14:46:28;;;;;;;8.50;7.60;;;24.50;32.20;;;;;;5055285;28;20024;-56
2022/01/25 14:49:22;;;;;;;9.35;7.47;;;24.50;32.20;;;;;;5053351;28;20028;-50
2022/01/25 14:51:51;;;;;;;8.55;7.75;;;24.50;32.10;;;;;;5055441;28;20017;-50
2022/01/25 14:54:27;;;;;;;8.52;7.72;;;24.40;32.00;;;;;;5054128;28;20028;-56
2022/01/25 14:57:06;;;;;;;8.13;7.32;;;24.40;32.00;;;;;;5052949;28;20017;-53
2022/01/25 14:59:34;;;;;;;8.43;7.40;;;24.40;32.00;;;;;;5054000;28;20115;-45
2022/01/25 15:02:09;;;;;;;8.10;7.30;;;24.40;32.00;;;;;;5055780;28;20025;-56
2022/01/25 15:04:41;;;;;;;8.70;7.90;;;24.50;32.00;;;;;;5055469;28;20024;-53
2022/01/25 15:07:08;;;;;;;8.57;7.32;;;24.50;31.90;;;;;;5055385;28;20036;-48